sensor_id;sensor_type;location;lat;lon;timestamp;temperature;humidity
32107;DHT22;18622;51.998;10.440;2023-05-02T02:47:43;12.30;99.90
32107;DHT22;18622;51.998;10.440;2023-05-02T02:50:35;12.30;99.90
32107;DHT22;18622;51.998;10.440;2023-05-02T02:53:10;12.30;99.90
32107;DHT22;18622;51.998;10.440;2023-05-02T02:58:47;12.30;99.90
32107;DHT22;18622;51.998;10.440;2023-05-02T03:01:19;12.30;99.90
32107;DHT22;18622;51.998;10.440;2023-05-02T03:03:48;12.20;99.90
32107;DHT22;18622;51.998;10.440;2023-05-02T03:06:17;12.20;99.90
32107;DHT22;18622;51.998;10.440;2023-05-02T03:08:45;12.10;99.90
32107;DHT22;18622;51.998;10.440;2023-05-02T03:11:13;11.90;99.90
32107;DHT22;18622;51.998;10.440;2023-05-02T03:13:41;11.80;99.90
32107;DHT22;18622;51.998;10.440;2023-05-02T03:16:32;11.80;99.90
32107;DHT22;18622;51.998;10.440;2023-05-02T03:19:01;11.80;99.90
32107;DHT22;18622;51.998;10.440;2023-05-02T03:21:29;11.80;99.90
32107;DHT22;18622;51.998;10.440;2023-05-02T03:24:01;11.80;99.90
32107;DHT22;18622;51.998;10.440;2023-05-02T03:26:29;11.90;99.90
32107;DHT22;18622;51.998;10.440;2023-05-02T03:28:57;11.90;99.90
32107;DHT22;18622;51.998;10.440;2023-05-02T03:31:25;11.90;99.90
32107;DHT22;18622;51.998;10.440;2023-05-02T03:33:53;12.00;99.90
32107;DHT22;18622;51.998;10.440;2023-05-02T03:36:21;11.90;99.90
32107;DHT22;18622;51.998;10.440;2023-05-02T03:38:49;11.90;99.90
32107;DHT22;18622;51.998;10.440;2023-05-02T03:41:17;11.90;99.90
32107;DHT22;18622;51.998;10.440;2023-05-02T03:43:46;11.90;99.90
32107;DHT22;18622;51.998;10.440;2023-05-02T03:46:14;12.00;99.90
32107;DHT22;18622;51.998;10.440;2023-05-02T03:48:42;12.00;99.90
32107;DHT22;18622;51.998;10.440;2023-05-02T03:51:11;12.00;99.90
32107;DHT22;18622;51.998;10.440;2023-05-02T03:53:39;12.00;99.90
32107;DHT22;18622;51.998;10.440;2023-05-02T03:56:07;12.00;99.90
32107;DHT22;18622;51.998;10.440;2023-05-02T03:58:35;12.00;99.90
32107;DHT22;18622;51.998;10.440;2023-05-02T04:01:03;12.00;99.90
32107;DHT22;18622;51.998;10.440;2023-05-02T04:03:31;12.00;99.90
32107;DHT22;18622;51.998;10.440;2023-05-02T04:05:59;12.00;99.90
32107;DHT22;18622;51.998;10.440;2023-05-02T04:08:26;12.00;99.90
32107;DHT22;18622;51.998;10.440;2023-05-02T04:10:54;12.00;99.90
32107;DHT22;18622;51.998;10.440;2023-05-02T04:13:22;12.00;99.90
32107;DHT22;18622;51.998;10.440;2023-05-02T04:15:50;12.00;99.90
32107;DHT22;18622;51.998;10.440;2023-05-02T04:18:18;12.00;99.90
32107;DHT22;18622;51.998;10.440;2023-05-02T04:20:46;12.10;99.90
32107;DHT22;18622;51.998;10.440;2023-05-02T04:23:14;12.10;99.90
32107;DHT22;18622;51.998;10.440;2023-05-02T04:25:49;12.10;99.90
32107;DHT22;18622;51.998;10.440;2023-05-02T04:28:19;12.10;99.90
32107;DHT22;18622;51.998;10.440;2023-05-02T04:30:48;12.20;99.90
32107;DHT22;18622;51.998;10.440;2023-05-02T04:33:17;12.20;99.90
32107;DHT22;18622;51.998;10.440;2023-05-02T04:35:44;12.30;99.90
32107;DHT22;18622;51.998;10.440;2023-05-02T04:38:13;12.30;99.90
32107;DHT22;18622;51.998;10.440;2023-05-02T04:40:41;12.40;99.90
32107;DHT22;18622;51.998;10.440;2023-05-02T04:43:09;12.40;99.90
32107;DHT22;18622;51.998;10.440;2023-05-02T04:45:37;12.50;99.90
32107;DHT22;18622;51.998;10.440;2023-05-02T04:48:04;12.50;99.90
32107;DHT22;18622;51.998;10.440;2023-05-02T04:50:32;12.60;99.90
32107;DHT22;18622;51.998;10.440;2023-05-02T04:53:00;12.60;99.90
32107;DHT22;18622;51.998;10.440;2023-05-02T04:55:28;12.60;99.90
32107;DHT22;18622;51.998;10.440;2023-05-02T04:57:56;12.60;99.90
32107;DHT22;18622;51.998;10.440;2023-05-02T05:00:23;12.60;99.90
32107;DHT22;18622;51.998;10.440;2023-05-02T05:02:51;12.60;99.90
32107;DHT22;18622;51.998;10.440;2023-05-02T05:05:19;12.70;99.90
32107;DHT22;18622;51.998;10.440;2023-05-02T05:07:47;12.70;99.90
32107;DHT22;18622;51.998;10.440;2023-05-02T05:10:15;12.70;99.90
32107;DHT22;18622;51.998;10.440;2023-05-02T05:12:43;12.80;99.90
32107;DHT22;18622;51.998;10.440;2023-05-02T05:15:11;12.90;99.90
32107;DHT22;18622;51.998;10.440;2023-05-02T05:17:39;13.00;99.90
32107;DHT22;18622;51.998;10.440;2023-05-02T05:20:08;13.00;99.90
32107;DHT22;18622;51.998;10.440;2023-05-02T05:22:42;13.00;99.90
32107;DHT22;18622;51.998;10.440;2023-05-02T05:25:10;13.10;99.90
32107;DHT22;18622;51.998;10.440;2023-05-02T05:27:38;13.10;99.90
32107;DHT22;18622;51.998;10.440;2023-05-02T14:47:56;21.50;55.80
32107;DHT22;18622;51.998;10.440;2023-05-02T14:50:24;22.20;55.90
32107;DHT22;18622;51.998;10.440;2023-05-02T14:52:52;22.80;52.40
32107;DHT22;18622;51.998;10.440;2023-05-02T14:55:20;22.90;50.00
32107;DHT22;18622;51.998;10.440;2023-05-02T14:57:47;22.00;48.10
32107;DHT22;18622;51.998;10.440;2023-05-02T15:02:44;19.40;52.90
32107;DHT22;18622;51.998;10.440;2023-05-02T15:05:12;18.70;55.20
32107;DHT22;18622;51.998;10.440;2023-05-02T15:07:40;18.20;56.00
32107;DHT22;18622;51.998;10.440;2023-05-02T15:10:08;17.90;56.30
32107;DHT22;18622;51.998;10.440;2023-05-02T15:12:36;17.90;58.30
32107;DHT22;18622;51.998;10.440;2023-05-02T15:15:04;18.10;56.40
32107;DHT22;18622;51.998;10.440;2023-05-02T15:17:32;18.00;56.10
32107;DHT22;18622;51.998;10.440;2023-05-02T15:20:00;17.90;56.40
32107;DHT22;18622;51.998;10.440;2023-05-02T15:22:28;17.70;57.10
32107;DHT22;18622;51.998;10.440;2023-05-02T15:24:55;17.70;57.30
32107;DHT22;18622;51.998;10.440;2023-05-02T15:27:23;17.60;56.00
32107;DHT22;18622;51.998;10.440;2023-05-02T15:29:51;17.40;57.10
32107;DHT22;18622;51.998;10.440;2023-05-02T15:32:19;17.10;56.30
32107;DHT22;18622;51.998;10.440;2023-05-02T15:34:47;16.90;56.80
32107;DHT22;18622;51.998;10.440;2023-05-02T15:37:15;16.80;56.40
32107;DHT22;18622;51.998;10.440;2023-05-02T15:39:43;16.90;56.50
32107;DHT22;18622;51.998;10.440;2023-05-02T15:42:11;17.20;56.90
32107;DHT22;18622;51.998;10.440;2023-05-02T15:44:38;17.30;56.10
32107;DHT22;18622;51.998;10.440;2023-05-02T15:47:06;17.40;56.00
32107;DHT22;18622;51.998;10.440;2023-05-02T15:49:34;17.30;55.80
32107;DHT22;18622;51.998;10.440;2023-05-02T15:52:02;17.00;56.30
32107;DHT22;18622;51.998;10.440;2023-05-02T15:54:30;16.70;56.20
32107;DHT22;18622;51.998;10.440;2023-05-02T15:56:58;16.40;58.00
32107;DHT22;18622;51.998;10.440;2023-05-02T15:59:28;16.30;56.90
32107;DHT22;18622;51.998;10.440;2023-05-02T16:01:55;16.20;58.50
32107;DHT22;18622;51.998;10.440;2023-05-02T16:07:01;16.10;58.90
32107;DHT22;18622;51.998;10.440;2023-05-02T16:09:29;16.00;59.40
32107;DHT22;18622;51.998;10.440;2023-05-02T16:11:57;15.80;57.60
32107;DHT22;18622;51.998;10.440;2023-05-02T16:14:25;15.70;59.10
32107;DHT22;18622;51.998;10.440;2023-05-02T16:16:54;15.70;61.60
32107;DHT22;18622;51.998;10.440;2023-05-02T16:19:22;15.80;60.50
32107;DHT22;18622;51.998;10.440;2023-05-02T16:21:50;15.90;61.20
32107;DHT22;18622;51.998;10.440;2023-05-02T16:24:18;15.90;61.10
32107;DHT22;18622;51.998;10.440;2023-05-02T16:26:46;15.90;60.50
32107;DHT22;18622;51.998;10.440;2023-05-02T16:29:14;15.80;59.50
32107;DHT22;18622;51.998;10.440;2023-05-02T16:31:41;15.70;60.10
32107;DHT22;18622;51.998;10.440;2023-05-02T16:34:09;15.80;59.40
32107;DHT22;18622;51.998;10.440;2023-05-02T16:36:37;16.50;60.70
32107;DHT22;18622;51.998;10.440;2023-05-02T16:39:05;18.00;57.70
32107;DHT22;18622;51.998;10.440;2023-05-02T16:41:33;19.10;53.60
32107;DHT22;18622;51.998;10.440;2023-05-02T16:44:01;18.80;52.40
32107;DHT22;18622;51.998;10.440;2023-05-02T16:46:30;18.10;52.80
32107;DHT22;18622;51.998;10.440;2023-05-02T16:48:58;17.30;53.10
32107;DHT22;18622;51.998;10.440;2023-05-02T16:51:26;16.60;55.70
32107;DHT22;18622;51.998;10.440;2023-05-02T16:53:54;16.10;56.10
32107;DHT22;18622;51.998;10.440;2023-05-02T16:56:22;15.60;56.90
32107;DHT22;18622;51.998;10.440;2023-05-02T16:58:49;15.20;57.80
32107;DHT22;18622;51.998;10.440;2023-05-02T17:01:17;15.20;58.40
32107;DHT22;18622;51.998;10.440;2023-05-02T17:03:45;15.40;57.90
32107;DHT22;18622;51.998;10.440;2023-05-02T17:06:13;15.30;56.80
32107;DHT22;18622;51.998;10.440;2023-05-02T17:08:41;14.90;57.50
32107;DHT22;18622;51.998;10.440;2023-05-02T17:11:09;14.60;58.20
32107;DHT22;18622;51.998;10.440;2023-05-02T17:13:36;14.30;58.10
32107;DHT22;18622;51.998;10.440;2023-05-02T17:16:04;14.00;59.30
32107;DHT22;18622;51.998;10.440;2023-05-02T17:18:33;13.80;59.40
32107;DHT22;18622;51.998;10.440;2023-05-02T17:21:01;13.60;61.40
32107;DHT22;18622;51.998;10.440;2023-05-02T17:23:29;13.40;60.70
32107;DHT22;18622;51.998;10.440;2023-05-02T17:25:57;13.30;59.80
32107;DHT22;18622;51.998;10.440;2023-05-02T17:28:25;13.20;60.80
32107;DHT22;18622;51.998;10.440;2023-05-02T17:30:53;13.00;60.50
32107;DHT22;18622;51.998;10.440;2023-05-02T17:33:22;12.80;60.80
32107;DHT22;18622;51.998;10.440;2023-05-02T17:35:52;12.70;61.90
32107;DHT22;18622;51.998;10.440;2023-05-02T17:38:20;12.70;62.30
32107;DHT22;18622;51.998;10.440;2023-05-02T17:40:47;12.60;62.90
32107;DHT22;18622;51.998;10.440;2023-05-02T17:43:15;12.60;63.40
32107;DHT22;18622;51.998;10.440;2023-05-02T17:45:43;12.50;63.10
32107;DHT22;18622;51.998;10.440;2023-05-02T17:48:11;12.50;63.60
32107;DHT22;18622;51.998;10.440;2023-05-02T17:50:39;12.40;63.00
32107;DHT22;18622;51.998;10.440;2023-05-02T17:53:07;12.30;62.70
32107;DHT22;18622;51.998;10.440;2023-05-02T17:55:36;12.20;63.40
32107;DHT22;18622;51.998;10.440;2023-05-02T17:58:04;12.10;63.00
32107;DHT22;18622;51.998;10.440;2023-05-02T18:00:31;12.00;63.00
32107;DHT22;18622;51.998;10.440;2023-05-02T18:03:00;12.00;63.60
32107;DHT22;18622;51.998;10.440;2023-05-02T18:05:28;11.90;64.00
32107;DHT22;18622;51.998;10.440;2023-05-02T18:07:55;11.90;63.40
32107;DHT22;18622;51.998;10.440;2023-05-02T18:10:24;11.80;63.80
32107;DHT22;18622;51.998;10.440;2023-05-02T18:12:52;11.80;63.90
32107;DHT22;18622;51.998;10.440;2023-05-02T18:15:19;11.70;64.00
32107;DHT22;18622;51.998;10.440;2023-05-02T18:17:47;11.70;64.80
32107;DHT22;18622;51.998;10.440;2023-05-02T18:20:15;11.60;65.30
32107;DHT22;18622;51.998;10.440;2023-05-02T18:22:43;11.60;66.00
32107;DHT22;18622;51.998;10.440;2023-05-02T18:25:11;11.50;66.40
32107;DHT22;18622;51.998;10.440;2023-05-02T18:27:39;11.50;67.10
32107;DHT22;18622;51.998;10.440;2023-05-02T18:30:07;11.50;67.20
32107;DHT22;18622;51.998;10.440;2023-05-02T18:32:35;11.40;67.10
32107;DHT22;18622;51.998;10.440;2023-05-02T18:35:08;11.40;67.40
32107;DHT22;18622;51.998;10.440;2023-05-02T18:37:38;11.30;68.20
32107;DHT22;18622;51.998;10.440;2023-05-02T18:40:07;11.30;68.50
32107;DHT22;18622;51.998;10.440;2023-05-02T18:42:35;11.30;68.10
32107;DHT22;18622;51.998;10.440;2023-05-02T18:45:03;11.20;68.20
32107;DHT22;18622;51.998;10.440;2023-05-02T18:47:31;11.20;68.60
32107;DHT22;18622;51.998;10.440;2023-05-02T18:49:59;11.20;68.50
32107;DHT22;18622;51.998;10.440;2023-05-02T18:52:28;11.10;68.40
32107;DHT22;18622;51.998;10.440;2023-05-02T18:54:56;11.10;69.20
32107;DHT22;18622;51.998;10.440;2023-05-02T18:57:24;11.10;69.60
32107;DHT22;18622;51.998;10.440;2023-05-02T18:59:52;11.00;69.80
32107;DHT22;18622;51.998;10.440;2023-05-02T19:02:20;11.00;69.30
32107;DHT22;18622;51.998;10.440;2023-05-02T19:04:48;11.00;69.60
32107;DHT22;18622;51.998;10.440;2023-05-02T19:07:16;11.00;70.60
32107;DHT22;18622;51.998;10.440;2023-05-02T19:09:43;10.90;69.70
32107;DHT22;18622;51.998;10.440;2023-05-02T19:12:11;10.90;70.00
32107;DHT22;18622;51.998;10.440;2023-05-02T19:14:39;10.90;70.70
32107;DHT22;18622;51.998;10.440;2023-05-02T19:17:07;10.90;70.50
32107;DHT22;18622;51.998;10.440;2023-05-02T19:19:35;10.90;70.50
32107;DHT22;18622;51.998;10.440;2023-05-02T19:22:03;10.90;70.80
32107;DHT22;18622;51.998;10.440;2023-05-02T19:24:30;10.80;70.70
32107;DHT22;18622;51.998;10.440;2023-05-02T19:26:59;10.90;70.80
32107;DHT22;18622;51.998;10.440;2023-05-02T19:29:27;10.80;70.60
32107;DHT22;18622;51.998;10.440;2023-05-02T19:31:54;10.80;71.20
32107;DHT22;18622;51.998;10.440;2023-05-02T19:34:22;10.80;71.10
32107;DHT22;18622;51.998;10.440;2023-05-02T19:36:50;10.70;71.10
32107;DHT22;18622;51.998;10.440;2023-05-02T19:39:18;10.70;70.60
32107;DHT22;18622;51.998;10.440;2023-05-02T19:41:46;10.70;70.90
32107;DHT22;18622;51.998;10.440;2023-05-02T19:44:14;10.60;71.40
32107;DHT22;18622;51.998;10.440;2023-05-02T19:46:43;10.60;72.00
32107;DHT22;18622;51.998;10.440;2023-05-02T19:49:11;10.50;72.30
32107;DHT22;18622;51.998;10.440;2023-05-02T19:51:41;10.50;72.20
32107;DHT22;18622;51.998;10.440;2023-05-02T19:54:09;10.50;70.70
32107;DHT22;18622;51.998;10.440;2023-05-02T19:56:37;10.40;70.80
32107;DHT22;18622;51.998;10.440;2023-05-02T19:59:05;10.40;71.20
32107;DHT22;18622;51.998;10.440;2023-05-02T20:01:33;10.40;71.70
32107;DHT22;18622;51.998;10.440;2023-05-02T20:04:01;10.40;71.80
32107;DHT22;18622;51.998;10.440;2023-05-02T20:06:29;10.40;71.90
32107;DHT22;18622;51.998;10.440;2023-05-02T20:08:57;10.40;71.90
32107;DHT22;18622;51.998;10.440;2023-05-02T20:11:25;10.40;72.00
32107;DHT22;18622;51.998;10.440;2023-05-02T20:13:53;10.30;71.90
32107;DHT22;18622;51.998;10.440;2023-05-02T20:16:21;10.30;72.30
32107;DHT22;18622;51.998;10.440;2023-05-02T20:18:49;10.30;71.80
32107;DHT22;18622;51.998;10.440;2023-05-02T20:21:18;10.30;72.10
32107;DHT22;18622;51.998;10.440;2023-05-02T20:23:46;10.20;72.40
32107;DHT22;18622;51.998;10.440;2023-05-02T20:26:13;10.20;72.60
32107;DHT22;18622;51.998;10.440;2023-05-02T20:28:43;10.10;73.00
32107;DHT22;18622;51.998;10.440;2023-05-02T20:31:10;10.00;73.20
32107;DHT22;18622;51.998;10.440;2023-05-02T20:33:38;9.90;73.40
32107;DHT22;18622;51.998;10.440;2023-05-02T20:36:06;9.90;73.70
32107;DHT22;18622;51.998;10.440;2023-05-02T20:38:34;9.80;73.90
32107;DHT22;18622;51.998;10.440;2023-05-02T20:41:04;9.80;74.00
32107;DHT22;18622;51.998;10.440;2023-05-02T20:43:33;9.80;74.20
